Terminal Aerodrome Forecast
Issued by NWS

Home | Current Version | Previous Version | Text Only | Print | Product List | Glossary On
Versions: 1 2 3 4 5 6 7 8 9 10 11 12 13 14 15 16 17 18 19 20 21 22 23
000
FTUS46 KMTR 300525
TAFSFO
TAF
KSFO 300525Z 3006/3112 30010KT P6SM FEW005
     FM301200 28004KT P6SM BKN006
     FM301700 34005KT P6SM FEW008
     FM302100 30015KT P6SM FEW010 SCT250
     FM310400 30010KT P6SM SCT250
     FM310600 28010KT P6SM BKN006=

USA.gov is the U.S. government's official web portal to all federal, state and local government web resources and services.